createdAt,value
2022-10-10T00:00:15.347Z,97.12
2022-10-10T00:01:15.374Z,97.12
2022-10-10T00:02:15.335Z,97.02
2022-10-10T00:03:15.319Z,97.12
2022-10-10T00:04:15.317Z,97.53
2022-10-10T00:05:15.313Z,97.85
2022-10-10T00:06:15.323Z,97.43
2022-10-10T00:07:15.305Z,97.53
2022-10-10T00:08:15.284Z,97.53
2022-10-10T00:09:15.278Z,97.85
2022-10-10T00:10:15.280Z,97.85
2022-10-10T00:11:15.295Z,97.95
2022-10-10T00:12:15.254Z,97.58
2022-10-10T00:13:15.254Z,98.16
2022-10-10T00:14:15.249Z,97.53
2022-10-10T00:15:15.235Z,97.95
2022-10-10T00:16:15.253Z,97.64
2022-10-10T00:17:15.222Z,97.78
2022-10-10T00:18:15.217Z,97.78
2022-10-10T00:19:15.212Z,97.47
2022-10-10T00:20:15.203Z,97.78
2022-10-10T00:21:15.214Z,97.58
2022-10-10T00:22:15.187Z,97.37
2022-10-10T00:23:15.182Z,97.37
2022-10-10T00:24:15.169Z,97.27
2022-10-10T00:25:15.159Z,97.68
2022-10-10T00:26:18.760Z,97.47
2022-10-10T00:27:16.141Z,97.58
2022-10-10T00:28:15.152Z,97.89
2022-10-10T00:29:15.124Z,98.20
2022-10-10T00:30:15.112Z,97.78
2022-10-10T00:31:16.146Z,98.20
2022-10-10T00:32:15.104Z,98.30
2022-10-10T00:33:15.103Z,98.93
2022-10-10T00:34:15.104Z,98.10
2022-10-10T00:35:15.081Z,98.72
2022-10-10T00:36:15.096Z,99.34
2022-10-10T00:37:15.064Z,99.34
2022-10-10T00:38:15.060Z,99.13
2022-10-10T00:39:15.050Z,99.13
2022-10-10T00:40:15.044Z,98.93
2022-10-10T00:41:15.069Z,99.34
2022-10-10T00:42:15.027Z,99.24
2022-10-10T00:43:15.030Z,99.96
2022-10-10T00:44:15.018Z,99.24
2022-10-10T00:45:15.014Z,99.99
2022-10-10T00:46:15.038Z,99.86
2022-10-10T00:47:15.004Z,99.86
2022-10-10T00:48:14.986Z,99.51
2022-10-10T00:49:14.988Z,98.93
2022-10-10T00:50:14.976Z,99.40
2022-10-10T00:51:14.998Z,99.19
2022-10-10T00:52:14.965Z,99.03
2022-10-10T00:53:14.963Z,99.24
2022-10-10T00:54:14.942Z,99.44
2022-10-10T00:55:14.938Z,99.44
2022-10-10T00:56:14.957Z,99.03
2022-10-10T00:57:14.934Z,99.24
2022-10-10T00:58:14.922Z,99.86
2022-10-10T00:59:14.905Z,99.86
2022-10-10T01:00:14.899Z,99.76
2022-10-10T01:01:14.954Z,99.55
2022-10-10T01:02:14.881Z,99.55
2022-10-10T01:03:14.914Z,99.76
2022-10-10T01:04:14.872Z,99.76
2022-10-10T01:05:14.858Z,99.65
2022-10-10T01:06:14.877Z,99.76
2022-10-10T01:07:14.884Z,99.55
2022-10-10T01:08:14.834Z,99.76
2022-10-10T01:09:14.828Z,99.34
2022-10-10T01:10:14.821Z,99.13
2022-10-10T01:11:14.836Z,98.93
2022-10-10T01:12:14.801Z,99.44
2022-10-10T01:13:14.815Z,99.13
2022-10-10T01:14:14.837Z,99.44
2022-10-10T01:15:14.816Z,99.34
2022-10-10T01:16:14.794Z,99.24
2022-10-10T01:17:14.768Z,98.99
2022-10-10T01:18:14.761Z,99.24
2022-10-10T01:19:14.748Z,99.44
2022-10-10T01:20:14.746Z,99.44
2022-10-10T01:21:14.766Z,99.40
2022-10-10T01:22:14.731Z,98.82
2022-10-10T01:23:14.728Z,98.51
2022-10-10T01:24:14.710Z,98.57
2022-10-10T01:25:14.701Z,99.09
2022-10-10T01:26:14.731Z,98.57
2022-10-10T01:27:14.693Z,98.57
2022-10-10T01:28:14.741Z,98.47
2022-10-10T01:29:14.692Z,98.16
2022-10-10T01:30:14.667Z,98.72
2022-10-10T01:31:14.699Z,98.41
2022-10-10T01:32:14.651Z,97.99
2022-10-10T01:33:14.643Z,98.36
2022-10-10T01:34:14.638Z,98.41
2022-10-10T01:35:14.631Z,98.30
2022-10-10T01:36:14.621Z,98.30
2022-10-10T01:37:14.641Z,98.10
2022-10-10T01:38:14.607Z,98.55
2022-10-10T01:39:14.593Z,98.03
2022-10-10T01:40:14.595Z,98.55
2022-10-10T01:41:14.587Z,98.86
2022-10-10T01:42:14.606Z,99.59
2022-10-10T01:43:14.571Z,99.28
2022-10-10T01:44:14.569Z,99.49
2022-10-10T01:45:14.555Z,99.38
2022-10-10T01:46:14.547Z,99.49
2022-10-10T01:47:14.567Z,99.44
2022-10-10T01:48:14.538Z,99.44
2022-10-10T01:49:14.531Z,99.44
2022-10-10T01:50:14.521Z,98.61
2022-10-10T01:51:14.512Z,99.03
2022-10-10T01:52:14.526Z,98.51
2022-10-10T01:53:14.498Z,98.35
2022-10-10T01:54:14.494Z,98.55
2022-10-10T01:55:14.482Z,98.55
2022-10-10T01:56:14.508Z,99.24
2022-10-10T01:57:14.494Z,99.03
2022-10-10T01:58:14.458Z,99.44
2022-10-10T01:59:14.452Z,99.34
2022-10-10T02:00:14.445Z,99.24
2022-10-10T02:01:14.489Z,99.44
2022-10-10T02:02:14.466Z,99.96
2022-10-10T02:03:14.425Z,99.86
2022-10-10T02:04:14.419Z,99.51
2022-10-10T02:05:14.402Z,99.71
2022-10-10T02:06:14.403Z,99.61
2022-10-10T02:07:14.422Z,99.51
2022-10-10T02:08:14.385Z,99.61
2022-10-10T02:09:14.377Z,99.51
2022-10-10T02:10:14.368Z,99.87
2022-10-10T02:11:14.362Z,99.87
2022-10-10T02:12:14.386Z,99.25
2022-10-10T02:13:14.349Z,99.31
2022-10-10T02:14:14.344Z,99.77
2022-10-10T02:15:14.341Z,99.10
2022-10-10T02:16:14.325Z,99.62
2022-10-10T02:17:14.351Z,99.72
2022-10-10T02:18:14.310Z,99.82
2022-10-10T02:19:14.309Z,99.87
2022-10-10T02:20:14.298Z,99.62
2022-10-10T02:21:14.290Z,99.41
2022-10-10T02:22:14.308Z,99.62
2022-10-10T02:23:14.286Z,99.62
2022-10-10T02:24:14.273Z,99.93
2022-10-10T02:25:14.265Z,99.21
2022-10-10T02:26:14.263Z,99.93
2022-10-10T02:27:14.276Z,99.57
2022-10-10T02:28:14.310Z,99.68
2022-10-10T02:29:14.233Z,99.78
2022-10-10T02:30:14.229Z,99.99
2022-10-10T02:31:14.243Z,99.05
2022-10-10T02:32:14.213Z,99.47
2022-10-10T02:33:14.205Z,99.47
2022-10-10T02:34:14.192Z,99.57
2022-10-10T02:35:14.192Z,99.88
2022-10-10T02:36:14.183Z,99.68
2022-10-10T02:37:14.198Z,99.78
2022-10-10T02:38:14.176Z,99.68
2022-10-10T02:39:14.161Z,99.88
2022-10-10T02:40:14.160Z,99.78
2022-10-10T02:41:14.143Z,99.88
2022-10-10T02:42:14.167Z,99.78
2022-10-10T02:43:14.134Z,99.78
2022-10-10T02:44:14.121Z,99.99
2022-10-10T02:45:14.123Z,99.78
2022-10-10T02:46:14.113Z,99.88
2022-10-10T02:47:14.121Z,99.73
2022-10-10T02:48:14.086Z,99.94
2022-10-10T02:49:14.086Z,99.16
2022-10-10T02:50:14.075Z,99.37
2022-10-10T02:51:14.069Z,98.95
2022-10-10T02:52:14.081Z,99.78
2022-10-10T02:53:14.049Z,99.47
2022-10-10T02:54:14.045Z,99.68
2022-10-10T02:55:14.040Z,99.78
2022-10-10T02:56:14.029Z,99.73
2022-10-10T02:57:14.037Z,99.84
2022-10-10T02:58:14.007Z,99.52
2022-10-10T02:59:14.013Z,99.52
2022-10-10T03:00:13.998Z,99.94
2022-10-10T03:01:14.032Z,99.26
2022-10-10T03:02:14.012Z,99.57
2022-10-10T03:03:13.978Z,99.01
2022-10-10T03:04:13.964Z,99.11
2022-10-10T03:05:13.960Z,99.32
2022-10-10T03:06:13.959Z,98.91
2022-10-10T03:07:13.965Z,99.01
2022-10-10T03:08:14.939Z,99.05
2022-10-10T03:09:13.934Z,99.11
2022-10-10T03:10:13.921Z,99.11
2022-10-10T03:11:13.914Z,99.05
2022-10-10T03:12:13.934Z,99.16
2022-10-10T03:13:13.899Z,99.26
2022-10-10T03:14:13.892Z,99.68
2022-10-10T03:15:13.881Z,99.11
2022-10-10T03:16:13.877Z,99.37
2022-10-10T03:17:13.897Z,99.52
2022-10-10T03:18:13.864Z,99.57
2022-10-10T03:19:13.852Z,99.68
2022-10-10T03:20:13.841Z,99.57
2022-10-10T03:21:13.838Z,99.43
2022-10-10T03:22:13.859Z,99.37
2022-10-10T03:23:13.827Z,99.52
2022-10-10T03:24:13.816Z,99.68
2022-10-10T03:25:13.807Z,99.78
2022-10-10T03:26:13.801Z,99.88
2022-10-10T03:27:13.821Z,99.01
2022-10-10T03:28:13.822Z,98.85
2022-10-10T03:29:13.776Z,99.16
2022-10-10T03:30:13.779Z,99.37
2022-10-10T03:31:13.762Z,99.78
2022-10-10T03:32:13.782Z,99.47
2022-10-10T03:33:13.747Z,99.68
2022-10-10T03:34:13.745Z,99.88
2022-10-10T03:35:13.740Z,99.88
2022-10-10T03:36:13.723Z,99.88
2022-10-10T03:37:13.761Z,99.47
2022-10-10T03:38:13.730Z,99.73
2022-10-10T03:39:13.704Z,99.26
2022-10-10T03:40:13.703Z,99.47
2022-10-10T03:41:13.702Z,99.52
2022-10-10T03:42:13.710Z,99.05
2022-10-10T03:43:13.677Z,99.88
2022-10-10T03:44:13.670Z,99.52
2022-10-10T03:45:13.674Z,99.99
2022-10-10T03:46:16.237Z,99.84
2022-10-10T03:47:14.681Z,99.47
2022-10-10T03:48:13.649Z,99.78
2022-10-10T03:49:13.637Z,99.78
2022-10-10T03:50:13.619Z,99.88
2022-10-10T03:51:13.617Z,99.88
2022-10-10T03:52:13.782Z,99.05
2022-10-10T03:53:13.595Z,99.99
2022-10-10T03:54:13.590Z,99.78
2022-10-10T03:55:13.581Z,99.78
2022-10-10T03:56:13.589Z,99.99
2022-10-10T03:57:13.576Z,99.82
2022-10-10T03:58:13.595Z,99.47
2022-10-10T03:59:13.565Z,99.68
2022-10-10T04:00:13.543Z,99.57
2022-10-10T04:01:14.592Z,99.62
2022-10-10T04:02:13.535Z,99.62
2022-10-10T04:03:13.551Z,99.62
2022-10-10T04:04:13.522Z,99.82
2022-10-10T04:05:13.512Z,99.82
2022-10-10T04:06:13.505Z,99.72
2022-10-10T04:07:13.503Z,99.72
2022-10-10T04:08:13.514Z,99.99
2022-10-10T04:09:13.476Z,99.99
2022-10-10T04:10:13.477Z,99.82
2022-10-10T04:11:13.467Z,99.82
2022-10-10T04:12:13.457Z,99.82
2022-10-10T04:13:13.482Z,99.82
2022-10-10T04:14:13.442Z,99.72
2022-10-10T04:15:13.438Z,99.93
2022-10-10T04:16:13.424Z,99.99
2022-10-10T04:17:13.419Z,99.72
2022-10-10T04:18:13.439Z,99.93
2022-10-10T04:19:13.404Z,99.93
2022-10-10T04:20:13.399Z,99.93
2022-10-10T04:21:13.396Z,99.93
2022-10-10T04:22:13.382Z,99.82
2022-10-10T04:23:13.407Z,99.72
2022-10-10T04:24:13.377Z,99.93
2022-10-10T04:25:13.360Z,99.82
2022-10-10T04:26:13.371Z,99.82
2022-10-10T04:27:13.368Z,99.93
2022-10-10T04:28:13.382Z,99.72
2022-10-10T04:29:13.342Z,99.72
2022-10-10T04:30:13.324Z,99.72
2022-10-10T04:31:13.320Z,99.82
2022-10-10T04:32:13.313Z,99.99
2022-10-10T04:33:13.341Z,99.82
2022-10-10T04:34:13.292Z,99.87
2022-10-10T04:35:13.301Z,99.98
2022-10-10T04:36:13.282Z,99.77
2022-10-10T04:37:13.277Z,99.99
2022-10-10T04:38:13.290Z,99.99
2022-10-10T04:39:13.270Z,99.99
2022-10-10T04:40:13.258Z,99.99
2022-10-10T04:41:13.248Z,99.66
2022-10-10T04:42:13.241Z,99.77
2022-10-10T04:43:13.260Z,99.66
2022-10-10T04:44:13.224Z,99.99
2022-10-10T04:45:13.214Z,99.99
2022-10-10T04:46:13.205Z,99.99
2022-10-10T04:47:13.227Z,99.99
2022-10-10T04:48:13.219Z,99.99
2022-10-10T04:49:13.181Z,99.99
2022-10-10T04:50:13.171Z,99.99
2022-10-10T04:51:13.171Z,99.99
2022-10-10T04:52:13.161Z,99.99
2022-10-10T04:53:13.180Z,99.99
2022-10-10T04:54:13.146Z,99.66
2022-10-10T04:55:13.133Z,99.98
2022-10-10T04:56:13.129Z,99.98
2022-10-10T04:57:13.118Z,99.77
2022-10-10T04:58:13.132Z,99.92
2022-10-10T04:59:13.108Z,99.99
2022-10-10T05:00:13.099Z,99.99
2022-10-10T05:01:13.142Z,99.99
2022-10-10T05:02:13.092Z,99.99
2022-10-10T05:03:13.109Z,99.99
2022-10-10T05:04:13.066Z,99.99
2022-10-10T05:05:13.061Z,99.99
2022-10-10T05:06:13.051Z,99.92
2022-10-10T05:07:13.046Z,99.99
2022-10-10T05:08:13.071Z,99.99
2022-10-10T05:09:13.042Z,99.99
2022-10-10T05:10:13.027Z,99.99
2022-10-10T05:11:13.015Z,99.99
2022-10-10T05:12:13.016Z,99.99
2022-10-10T05:13:13.025Z,99.99
2022-10-10T05:14:12.993Z,99.99
2022-10-10T05:15:12.983Z,99.99
2022-10-10T05:16:12.985Z,99.99
2022-10-10T05:17:12.952Z,99.99
2022-10-10T05:18:13.988Z,99.99
2022-10-10T05:19:12.962Z,99.99
2022-10-10T05:20:12.953Z,99.99
2022-10-10T05:21:12.940Z,99.99
2022-10-10T05:22:12.939Z,99.82
2022-10-10T05:23:12.957Z,99.82
2022-10-10T05:24:12.919Z,99.71
2022-10-10T05:25:12.905Z,99.99
2022-10-10T05:26:13.907Z,99.86
2022-10-10T05:27:12.893Z,99.99
2022-10-10T05:28:12.992Z,99.99
2022-10-10T05:29:12.879Z,99.99
2022-10-10T05:30:12.881Z,99.76
2022-10-10T05:31:12.870Z,99.99
2022-10-10T05:32:12.883Z,99.99
2022-10-10T05:33:12.879Z,99.86
2022-10-10T05:34:12.844Z,99.99
2022-10-10T05:35:12.834Z,99.99
2022-10-10T05:36:12.832Z,99.99
2022-10-10T05:37:12.821Z,99.99
2022-10-10T05:38:12.839Z,99.99
2022-10-10T05:39:12.809Z,99.99
2022-10-10T05:40:12.796Z,99.99
2022-10-10T05:41:12.796Z,99.99
2022-10-10T05:42:12.814Z,99.99
2022-10-10T05:43:12.896Z,99.99
2022-10-10T05:44:12.767Z,99.99
2022-10-10T05:45:12.767Z,99.99
2022-10-10T05:46:12.753Z,99.99
2022-10-10T05:47:12.742Z,99.99
2022-10-10T05:48:12.794Z,99.99
2022-10-10T05:49:12.727Z,99.99
2022-10-10T05:50:12.718Z,99.99
2022-10-10T05:51:12.715Z,99.99
2022-10-10T05:52:12.708Z,99.99
2022-10-10T05:53:12.725Z,99.99
2022-10-10T05:54:12.685Z,99.99
2022-10-10T05:55:12.675Z,99.99
2022-10-10T05:56:12.675Z,99.99
2022-10-10T05:57:16.242Z,99.99
2022-10-10T05:58:13.687Z,99.99
2022-10-10T05:59:12.655Z,99.99
2022-10-10T06:00:12.643Z,99.99
2022-10-10T06:01:12.637Z,99.99
2022-10-10T06:02:12.677Z,99.99
2022-10-10T06:03:12.649Z,99.99
2022-10-10T06:04:12.612Z,99.99
2022-10-10T06:05:12.610Z,99.99
2022-10-10T06:06:12.615Z,99.99
2022-10-10T06:07:12.587Z,99.99
2022-10-10T06:08:12.795Z,99.99
2022-10-10T06:09:12.616Z,99.99
2022-10-10T06:10:12.572Z,99.99
2022-10-10T06:11:12.561Z,99.99
2022-10-10T06:12:12.553Z,99.99
2022-10-10T06:13:12.559Z,99.99
2022-10-10T06:14:12.570Z,99.99
2022-10-10T06:15:12.530Z,99.99
2022-10-10T06:16:12.549Z,99.99
2022-10-10T06:17:12.551Z,99.99
2022-10-10T06:18:12.512Z,99.99
2022-10-10T06:19:14.975Z,99.99
2022-10-10T06:20:13.490Z,99.99
2022-10-10T06:21:12.487Z,99.99
2022-10-10T06:22:12.480Z,99.99
2022-10-10T06:23:12.479Z,99.72
2022-10-10T06:24:12.491Z,99.82
2022-10-10T06:25:35.263Z,99.68
2022-10-10T06:26:14.450Z,99.57
2022-10-10T06:27:12.445Z,99.68
2022-10-10T06:28:12.518Z,99.47
2022-10-10T06:29:12.459Z,99.01
2022-10-10T06:30:12.424Z,99.43
2022-10-10T06:31:12.518Z,99.58
2022-10-10T06:32:12.407Z,98.65
2022-10-10T06:33:12.404Z,99.07
2022-10-10T06:34:12.419Z,98.96
2022-10-10T06:35:12.385Z,98.19
2022-10-10T06:36:12.374Z,97.78
2022-10-10T06:37:12.386Z,97.99
2022-10-10T06:38:12.359Z,97.47
2022-10-10T06:39:13.381Z,96.85
2022-10-10T06:40:12.361Z,96.80
2022-10-10T06:41:12.342Z,96.85
2022-10-10T06:42:12.337Z,96.59
2022-10-10T06:43:12.462Z,96.76
2022-10-10T06:44:12.340Z,96.19
2022-10-10T06:45:12.312Z,96.03
2022-10-10T06:46:12.304Z,96.03
2022-10-10T06:47:12.298Z,95.31
2022-10-10T06:48:12.290Z,95.21
2022-10-10T06:49:12.311Z,95.00
2022-10-10T06:50:12.279Z,95.10
2022-10-10T06:51:12.263Z,95.10
2022-10-10T06:52:12.257Z,95.17
2022-10-10T06:53:12.255Z,94.65
2022-10-10T06:54:12.273Z,94.34
2022-10-10T06:55:12.234Z,94.09
2022-10-10T06:56:12.333Z,93.78
2022-10-10T06:57:12.218Z,93.78
2022-10-10T06:58:12.208Z,92.95
2022-10-10T06:59:12.230Z,93.22
2022-10-10T07:00:12.190Z,92.91
2022-10-10T07:01:12.307Z,93.01
2022-10-10T07:02:12.183Z,92.76
2022-10-10T07:03:12.170Z,92.86
2022-10-10T07:04:12.195Z,92.86
2022-10-10T07:05:12.163Z,92.55
2022-10-10T07:06:12.210Z,91.79
2022-10-10T07:07:12.139Z,91.32
2022-10-10T07:08:12.136Z,92.10
2022-10-10T07:09:12.156Z,91.83
2022-10-10T07:10:12.125Z,91.58
2022-10-10T07:11:12.239Z,90.86
2022-10-10T07:12:12.110Z,90.66
2022-10-10T07:13:12.111Z,91.03
2022-10-10T07:14:12.121Z,90.61
2022-10-10T07:15:12.088Z,90.67
2022-10-10T07:16:12.128Z,90.67
2022-10-10T07:17:12.075Z,90.22
2022-10-10T07:18:12.071Z,90.06
2022-10-10T07:19:12.081Z,89.81
2022-10-10T07:20:12.044Z,90.12
2022-10-10T07:21:12.102Z,90.01
2022-10-10T07:22:12.038Z,89.81
2022-10-10T07:23:12.104Z,89.91
2022-10-10T07:24:12.042Z,89.50
2022-10-10T07:25:12.012Z,89.77
2022-10-10T07:26:12.098Z,89.29
2022-10-10T07:27:11.991Z,89.46
2022-10-10T07:28:12.038Z,89.87
2022-10-10T07:29:12.003Z,89.15
2022-10-10T07:30:11.971Z,88.84
2022-10-10T07:31:12.041Z,88.53
2022-10-10T07:32:11.952Z,88.74
2022-10-10T07:33:11.943Z,88.80
2022-10-10T07:34:11.963Z,89.52
2022-10-10T07:35:11.941Z,88.56
2022-10-10T07:36:11.944Z,87.94
2022-10-10T07:37:11.924Z,88.04
2022-10-10T07:38:11.913Z,88.72
2022-10-10T07:39:16.909Z,88.20
2022-10-10T07:40:13.894Z,88.31
2022-10-10T07:41:11.892Z,88.20
2022-10-10T07:42:11.876Z,87.24
2022-10-10T07:43:11.878Z,87.65
2022-10-10T07:44:11.888Z,86.83
2022-10-10T07:45:11.858Z,86.89
2022-10-10T07:46:12.499Z,87.30
2022-10-10T07:47:11.839Z,86.68
2022-10-10T07:48:11.834Z,86.58
2022-10-10T07:49:11.850Z,86.79
2022-10-10T07:50:11.813Z,86.58
2022-10-10T07:51:11.822Z,86.75
2022-10-10T07:52:11.803Z,86.75
2022-10-10T07:53:11.793Z,85.62
2022-10-10T07:54:11.810Z,86.71
2022-10-10T07:55:11.779Z,85.47
2022-10-10T07:56:11.819Z,85.06
2022-10-10T07:57:11.767Z,85.33
2022-10-10T07:58:11.742Z,84.52
2022-10-10T07:59:12.773Z,84.31
2022-10-10T08:00:11.736Z,84.72
2022-10-10T08:01:11.735Z,84.52
2022-10-10T08:02:11.787Z,84.41
2022-10-10T08:03:12.304Z,84.58
2022-10-10T08:04:12.746Z,84.58
2022-10-10T08:05:11.703Z,84.06
2022-10-10T08:06:11.693Z,84.33
2022-10-10T08:07:11.768Z,84.84
2022-10-10T08:08:11.684Z,84.50
2022-10-10T08:09:11.702Z,84.19
2022-10-10T08:10:11.668Z,83.84
2022-10-10T08:11:11.694Z,82.82
2022-10-10T08:12:11.659Z,84.15
2022-10-10T08:13:11.648Z,83.84
2022-10-10T08:14:11.666Z,83.91
2022-10-10T08:16:11.624Z,84.42
2022-10-10T08:17:11.614Z,84.17
2022-10-10T08:18:11.611Z,82.68
2022-10-10T08:19:11.629Z,82.64
2022-10-10T08:20:11.596Z,82.43
2022-10-10T08:21:11.588Z,82.03
2022-10-10T08:22:11.577Z,82.34
2022-10-10T08:23:11.568Z,82.95
2022-10-10T08:24:11.587Z,81.07
2022-10-10T08:25:11.563Z,80.90
2022-10-10T08:26:11.553Z,81.07
2022-10-10T08:27:11.541Z,80.66
2022-10-10T08:28:11.576Z,80.97
2022-10-10T08:29:11.568Z,80.76
2022-10-10T08:30:11.525Z,81.13
2022-10-10T08:31:11.512Z,80.73
2022-10-10T08:32:11.505Z,81.10
2022-10-10T08:33:11.499Z,81.60
2022-10-10T08:34:11.492Z,81.16
2022-10-10T08:35:11.508Z,81.05
2022-10-10T08:36:11.518Z,80.65
2022-10-10T08:37:11.470Z,81.30
2022-10-10T08:38:11.462Z,82.93
2022-10-10T08:39:11.453Z,82.22
2022-10-10T08:40:11.469Z,82.49
2022-10-10T08:41:11.442Z,81.87
2022-10-10T08:42:11.437Z,82.14
2022-10-10T08:43:11.422Z,81.53
2022-10-10T08:44:11.440Z,80.98
2022-10-10T08:45:11.430Z,81.57
2022-10-10T08:46:12.394Z,82.39
2022-10-10T08:47:11.397Z,82.55
2022-10-10T08:48:11.385Z,80.24
2022-10-10T08:49:13.944Z,80.04
2022-10-10T08:50:12.399Z,80.82
2022-10-10T08:51:11.363Z,80.75
2022-10-10T08:52:11.357Z,80.30
2022-10-10T08:53:11.353Z,79.86
2022-10-10T08:54:11.349Z,79.86
2022-10-10T08:55:11.358Z,79.93
2022-10-10T08:56:11.320Z,79.52
2022-10-10T08:57:11.318Z,78.46
2022-10-10T08:58:11.304Z,78.16
2022-10-10T08:59:11.303Z,78.46
2022-10-10T09:00:11.316Z,79.79
2022-10-10T09:01:11.326Z,79.44
2022-10-10T09:02:17.859Z,78.32
2022-10-10T09:03:12.272Z,77.81
2022-10-10T09:04:11.268Z,78.22
2022-10-10T09:05:11.297Z,77.61
2022-10-10T09:06:11.249Z,79.17
2022-10-10T09:07:11.240Z,79.64
2022-10-10T09:08:11.231Z,79.07
2022-10-10T09:09:11.223Z,80.70
2022-10-10T09:10:11.253Z,80.91
2022-10-10T09:11:11.239Z,81.07
2022-10-10T09:12:11.203Z,80.02
2022-10-10T09:13:11.194Z,78.86
2022-10-10T09:14:11.192Z,78.35
2022-10-10T09:15:11.204Z,79.20
2022-10-10T09:16:11.175Z,78.66
2022-10-10T09:17:11.160Z,79.13
2022-10-10T09:18:11.149Z,78.78
2022-10-10T09:19:12.561Z,77.43
2022-10-10T09:20:11.162Z,76.01
2022-10-10T09:21:11.132Z,76.10
2022-10-10T09:22:11.125Z,75.56
2022-10-10T09:23:11.115Z,74.79
2022-10-10T09:24:11.130Z,75.46
2022-10-10T09:25:11.101Z,74.44
2022-10-10T09:26:11.761Z,76.48
2022-10-10T09:27:12.079Z,75.32
2022-10-10T09:28:11.112Z,74.62
2022-10-10T09:29:11.088Z,74.71
2022-10-10T09:30:11.084Z,73.90
2022-10-10T09:31:11.050Z,74.62
2022-10-10T09:32:11.041Z,74.92
2022-10-10T09:33:11.036Z,74.98
2022-10-10T09:34:11.061Z,74.88
2022-10-10T09:35:11.028Z,74.04
2022-10-10T09:36:11.017Z,73.93
2022-10-10T09:37:13.719Z,73.57
2022-10-10T09:38:12.998Z,73.87
2022-10-10T09:39:11.006Z,74.58
2022-10-10T09:40:11.025Z,74.14
2022-10-10T09:41:11.024Z,73.93
2022-10-10T09:42:10.981Z,73.90
2022-10-10T09:43:10.975Z,73.49
2022-10-10T09:44:10.987Z,73.90
2022-10-10T09:45:10.942Z,73.70
2022-10-10T09:46:10.940Z,72.99
2022-10-10T09:47:10.936Z,73.05
2022-10-10T09:48:10.920Z,73.56
2022-10-10T09:49:10.948Z,73.25
2022-10-10T09:50:10.918Z,72.96
2022-10-10T09:51:10.903Z,73.49
2022-10-10T09:52:10.890Z,73.29
2022-10-10T09:53:10.888Z,73.90
2022-10-10T09:54:10.905Z,74.30
2022-10-10T09:55:10.868Z,73.90
2022-10-10T09:56:10.864Z,74.21
2022-10-10T09:57:10.856Z,73.53
2022-10-10T09:58:10.847Z,73.46
2022-10-10T09:59:10.863Z,73.36
2022-10-10T10:00:10.829Z,73.02
2022-10-10T10:01:10.845Z,72.61
2022-10-10T10:02:10.816Z,73.02
2022-10-10T10:03:10.804Z,72.61
2022-10-10T10:04:27.275Z,72.58
2022-10-10T10:05:12.789Z,73.39
2022-10-10T10:06:10.781Z,72.78
2022-10-10T10:07:10.770Z,72.99
2022-10-10T10:08:10.764Z,72.48
2022-10-10T10:09:10.785Z,72.78
2022-10-10T10:10:10.752Z,72.95
2022-10-10T10:11:10.752Z,72.44
2022-10-10T10:12:10.752Z,73.15
2022-10-10T10:13:10.736Z,72.55
2022-10-10T10:14:10.879Z,73.05
2022-10-10T10:15:10.716Z,72.51
2022-10-10T10:16:10.708Z,72.51
2022-10-10T10:17:10.716Z,72.92
2022-10-10T10:18:10.690Z,72.88
2022-10-10T10:19:10.706Z,72.78
2022-10-10T10:20:11.005Z,72.38
2022-10-10T10:21:11.670Z,72.08
2022-10-10T10:22:10.661Z,71.67
2022-10-10T10:23:10.659Z,73.28
2022-10-10T10:24:10.685Z,72.99
2022-10-10T10:25:10.641Z,72.48
2022-10-10T10:26:10.637Z,73.25
2022-10-10T10:27:10.622Z,72.04
2022-10-10T10:28:10.638Z,72.31
2022-10-10T10:29:10.640Z,71.10
2022-10-10T10:30:10.603Z,71.91
2022-10-10T10:31:10.594Z,71.70
2022-10-10T10:32:10.585Z,71.20
2022-10-10T10:33:10.580Z,70.56
2022-10-10T10:34:10.597Z,71.17
2022-10-10T10:35:10.563Z,71.37
2022-10-10T10:36:10.554Z,71.37
2022-10-10T10:37:14.750Z,71.03
2022-10-10T10:38:11.530Z,71.03
2022-10-10T10:39:11.563Z,71.13
2022-10-10T10:40:10.527Z,71.44
2022-10-10T10:41:10.520Z,70.09
2022-10-10T10:42:10.512Z,70.29
2022-10-10T10:43:10.503Z,71.13
2022-10-10T10:44:10.520Z,71.30
2022-10-10T10:45:10.490Z,70.32
2022-10-10T10:46:10.477Z,71.10
2022-10-10T10:47:10.467Z,71.20
2022-10-10T10:48:10.467Z,70.69
2022-10-10T10:49:10.484Z,71.60
2022-10-10T10:50:10.441Z,70.79
2022-10-10T10:51:10.433Z,70.29
2022-10-10T10:52:10.433Z,70.09
2022-10-10T10:53:10.420Z,71.00
2022-10-10T10:54:10.454Z,71.10
2022-10-10T10:55:10.406Z,70.56
2022-10-10T10:56:10.404Z,70.49
2022-10-10T10:57:11.212Z,70.66
2022-10-10T11:00:21.812Z,70.56
2022-10-10T11:01:20.204Z,70.36
2022-10-10T11:02:11.598Z,70.36
2022-10-10T11:03:35.260Z,70.12
2022-10-10T11:05:20.450Z,69.92
2022-10-10T11:05:22.745Z,70.02
2022-10-10T11:06:11.375Z,69.79
2022-10-10T11:07:19.458Z,70.53
2022-10-10T11:08:12.365Z,69.92
2022-10-10T11:09:16.845Z,69.32
2022-10-10T11:10:12.287Z,69.52
2022-10-10T11:11:10.287Z,69.82
2022-10-10T11:12:10.277Z,70.02
2022-10-10T11:13:10.315Z,70.22
2022-10-10T11:14:10.302Z,69.92
2022-10-10T11:15:10.254Z,69.62
2022-10-10T11:16:24.264Z,69.82
2022-10-10T11:17:12.235Z,69.69
2022-10-10T11:18:10.279Z,69.18
2022-10-10T11:19:10.876Z,69.49
2022-10-10T11:20:10.214Z,69.05
2022-10-10T11:21:10.208Z,68.58
2022-10-10T11:22:10.197Z,68.85
2022-10-10T11:23:10.198Z,68.35
2022-10-10T11:24:10.199Z,68.75
2022-10-10T11:25:11.178Z,68.75
2022-10-10T11:26:10.169Z,69.25
2022-10-10T11:27:10.164Z,69.12
2022-10-10T11:28:10.190Z,68.95
2022-10-10T11:29:10.173Z,68.44
2022-10-10T11:30:10.151Z,68.51
2022-10-10T11:31:10.160Z,69.02
2022-10-10T11:32:10.190Z,69.15
2022-10-10T11:33:10.115Z,69.32
2022-10-10T11:34:10.128Z,68.31
2022-10-10T11:35:10.114Z,68.82
2022-10-10T11:36:10.088Z,68.41
2022-10-10T11:37:10.082Z,69.76
2022-10-10T11:38:10.075Z,69.12
2022-10-10T11:39:14.528Z,68.82
2022-10-10T11:40:12.099Z,68.62
2022-10-10T11:41:10.048Z,69.35
2022-10-10T11:42:10.046Z,68.65
2022-10-10T11:43:10.032Z,69.52
2022-10-10T11:44:10.093Z,69.52
2022-10-10T11:45:10.028Z,69.02
2022-10-10T11:46:10.324Z,69.02
2022-10-10T11:47:10.005Z,69.09
2022-10-10T11:48:10.002Z,68.88
2022-10-10T11:49:10.034Z,68.68
2022-10-10T11:50:09.980Z,68.68
2022-10-10T11:51:14.034Z,67.98
2022-10-10T11:52:32.606Z,68.78
2022-10-10T11:53:11.963Z,69.22
2022-10-10T11:54:09.951Z,69.12
2022-10-10T11:55:09.964Z,69.79
2022-10-10T11:56:09.934Z,68.78
2022-10-10T11:57:12.870Z,68.31
2022-10-10T11:58:10.933Z,69.12
2022-10-10T11:59:09.909Z,69.22
2022-10-10T12:00:09.975Z,69.62
2022-10-10T12:01:10.900Z,69.12
2022-10-10T12:02:09.889Z,69.42
2022-10-10T12:03:09.883Z,69.96
2022-10-10T12:04:09.877Z,70.36
2022-10-10T12:05:09.927Z,70.46
2022-10-10T12:06:09.859Z,70.26
2022-10-10T12:07:09.855Z,69.76
2022-10-10T12:08:11.504Z,70.16
2022-10-10T12:09:09.838Z,70.16
2022-10-10T12:10:09.929Z,70.59
2022-10-10T12:11:09.822Z,71.40
2022-10-10T12:12:09.817Z,70.46
2022-10-10T12:13:09.808Z,70.39
2022-10-10T12:14:09.795Z,70.96
2022-10-10T12:15:09.820Z,70.36
2022-10-10T12:16:09.782Z,70.23
2022-10-10T12:17:09.783Z,69.82
2022-10-10T12:18:09.769Z,68.91
2022-10-10T12:19:09.756Z,69.22
2022-10-10T12:20:09.801Z,69.62
2022-10-10T12:21:09.748Z,69.49
2022-10-10T12:22:09.737Z,69.18
2022-10-10T12:23:09.735Z,69.38
2022-10-10T12:24:09.750Z,68.88
2022-10-10T12:25:09.734Z,69.22
2022-10-10T12:26:09.706Z,69.29
2022-10-10T12:27:09.695Z,69.49
2022-10-10T12:28:09.737Z,69.49
2022-10-10T12:29:09.682Z,69.15
2022-10-10T12:30:09.778Z,68.98
2022-10-10T12:31:09.670Z,69.38
2022-10-10T12:32:09.664Z,69.35
2022-10-10T12:33:09.656Z,69.06
2022-10-10T12:34:09.644Z,69.45
2022-10-10T12:35:09.661Z,69.18
2022-10-10T12:36:09.632Z,68.68
2022-10-10T12:37:09.618Z,69.15
2022-10-10T12:38:09.610Z,69.25
2022-10-10T12:39:09.613Z,68.45
2022-10-10T12:40:09.677Z,69.76
2022-10-10T12:41:09.587Z,69.22
2022-10-10T12:42:09.589Z,69.22
2022-10-10T12:43:09.577Z,68.41
2022-10-10T12:44:09.568Z,68.12
2022-10-10T12:45:09.591Z,68.92
2022-10-10T12:46:09.540Z,68.72
2022-10-10T12:47:10.544Z,69.42
2022-10-10T12:48:09.534Z,68.92
2022-10-10T12:49:09.525Z,68.21
2022-10-10T12:50:09.552Z,69.02
2022-10-10T12:51:09.513Z,68.32
2022-10-10T12:52:09.503Z,68.32
2022-10-10T12:53:09.496Z,68.92
2022-10-10T12:54:09.484Z,68.41
2022-10-10T12:55:09.483Z,68.62